Time;durP1;ratioP1;P1;durP2;ratioP2;P2;SDS_P1;SDS_P2;PMS_P1;PMS_P2;Temp;Humidity;BMP_temperature;BMP_pressure;BME280_temperature;BME280_humidity;BME280_pressure;Samples;Min_cycle;Max_cycle;Signal;HPM_P1;HPM_P2
2021/01/06 00:01:06;;;;;;;3.22;2.92;;;;;;;;;;4778156;30;20567;-86
2021/01/06 00:03:33;;;;;;;4.10;3.40;;;;;;;;;;4777459;30;20249;-86
2021/01/06 00:06:05;;;;;;;3.80;3.38;;;;;;;;;;4778111;30;20251;-86
2021/01/06 00:08:32;;;;;;;3.67;3.28;;;;;;;;;;4777723;30;20207;-86
2021/01/06 00:11:00;;;;;;;3.42;3.08;;;;;;;;;;4777965;30;20192;-86
2021/01/06 00:13:27;;;;;;;3.78;3.38;;;;;;;;;;4777581;30;20220;-86
2021/01/06 00:15:56;;;;;;;3.67;2.88;;;;;;;;;;4778180;30;20212;-86
2021/01/06 00:18:24;;;;;;;4.18;3.22;;;;;;;;;;4777404;30;20200;-88
2021/01/06 00:20:52;;;;;;;4.30;3.38;;;;;;;;;;4777952;30;20223;-88
2021/01/06 00:23:19;;;;;;;4.72;3.58;;;;;;;;;;4777862;30;20496;-88
2021/01/06 00:25:46;;;;;;;4.90;3.50;;;;;;;;;;4777666;30;20193;-89
2021/01/06 00:28:16;;;;;;;5.40;4.90;;;;;;;;;;4777734;30;20217;-88
2021/01/06 00:30:46;;;;;;;5.32;3.85;;;;;;;;;;4777714;30;20199;-86
2021/01/06 00:33:16;;;;;;;3.80;3.45;;;;;;;;;;4770783;30;20232;-85
2021/01/06 00:35:43;;;;;;;4.13;3.72;;;;;;;;;;4776807;30;20202;-87
2021/01/06 00:38:10;;;;;;;4.50;3.80;;;;;;;;;;4776880;30;20287;-85
2021/01/06 00:40:37;;;;;;;5.45;4.18;;;;;;;;;;4777069;30;20253;-85
2021/01/06 00:43:08;;;;;;;4.68;3.58;;;;;;;;;;4776471;30;20200;-86
2021/01/06 00:45:35;;;;;;;5.03;4.53;;;;;;;;;;4777196;30;20199;-86
2021/01/06 00:48:03;;;;;;;5.38;4.40;;;;;;;;;;4776963;30;20274;-86
2021/01/06 00:50:32;;;;;;;5.35;4.55;;;;;;;;;;4777216;30;20203;-86
2021/01/06 00:53:00;;;;;;;4.85;3.88;;;;;;;;;;4776621;30;20273;-86
2021/01/06 00:55:27;;;;;;;4.97;4.47;;;;;;;;;;4777090;30;20197;-85
2021/01/06 00:57:55;;;;;;;5.18;4.75;;;;;;;;;;4777336;30;20208;-87
2021/01/06 01:00:24;;;;;;;5.80;5.13;;;;;;;;;;4776842;30;20200;-86
2021/01/06 01:02:52;;;;;;;7.57;5.35;;;;;;;;;;4776264;30;20247;-87
2021/01/06 01:05:21;;;;;;;7.80;4.47;;;;;;;;;;4776597;30;20192;-86
2021/01/06 01:07:49;;;;;;;6.60;5.43;;;;;;;;;;4776976;30;20259;-86
2021/01/06 01:10:28;;;;;;;5.22;3.97;;;;;;;;;;4776845;30;20192;-86
2021/01/06 01:12:55;;;;;;;5.45;4.90;;;;;;;;;;4776446;30;20196;-86
2021/01/06 01:15:23;;;;;;;6.22;5.05;;;;;;;;;;4776329;30;20567;-86
2021/01/06 01:17:50;;;;;;;5.18;4.28;;;;;;;;;;4776784;30;20196;-86
2021/01/06 01:20:19;;;;;;;4.10;3.72;;;;;;;;;;4776556;30;20200;-86
2021/01/06 01:22:46;;;;;;;3.55;3.25;;;;;;;;;;4776083;30;20203;-87
2021/01/06 01:25:18;;;;;;;3.63;3.28;;;;;;;;;;4776692;30;20200;-86
2021/01/06 01:27:45;;;;;;;3.40;2.92;;;;;;;;;;4776599;30;20185;-87
2021/01/06 01:30:15;;;;;;;3.45;2.42;;;;;;;;;;4776621;30;20200;-87
2021/01/06 01:32:43;;;;;;;3.05;2.50;;;;;;;;;;4776037;30;20239;-87
2021/01/06 01:35:12;;;;;;;3.20;2.60;;;;;;;;;;4776467;30;20589;-87
2021/01/06 01:37:42;;;;;;;5.47;3.15;;;;;;;;;;4776363;30;20566;-86
2021/01/06 01:40:17;;;;;;;2.92;2.63;;;;;;;;;;4776458;30;20250;-86
2021/01/06 01:42:44;;;;;;;3.22;2.92;;;;;;;;;;4776555;30;20488;-86
2021/01/06 01:45:13;;;;;;;2.92;2.67;;;;;;;;;;4776334;30;20200;-86
2021/01/06 01:47:47;;;;;;;2.95;2.65;;;;;;;;;;4776359;30;20192;-87
2021/01/06 01:50:16;;;;;;;3.00;2.78;;;;;;;;;;4776458;30;20267;-86
2021/01/06 01:52:50;;;;;;;2.75;2.35;;;;;;;;;;4776230;30;20204;-86
2021/01/06 01:55:18;;;;;;;2.97;2.20;;;;;;;;;;4776138;30;20498;-87
2021/01/06 01:57:50;;;;;;;2.95;2.70;;;;;;;;;;4776058;30;20203;-86
2021/01/06 02:00:21;;;;;;;3.30;3.00;;;;;;;;;;4775564;30;20204;-86
2021/01/06 02:02:58;;;;;;;2.92;2.72;;;;;;;;;;4776002;30;20250;-87
2021/01/06 02:05:30;;;;;;;3.03;2.72;;;;;;;;;;4775919;30;20455;-86
2021/01/06 02:08:02;;;;;;;3.22;2.67;;;;;;;;;;4776197;30;20533;-87
2021/01/06 02:10:33;;;;;;;3.08;2.78;;;;;;;;;;4776799;30;20227;-87
2021/01/06 02:13:06;;;;;;;3.17;2.97;;;;;;;;;;4776290;30;20195;-86
2021/01/06 02:15:39;;;;;;;5.45;2.88;;;;;;;;;;4776101;30;20196;-86
2021/01/06 02:18:08;;;;;;;3.17;2.88;;;;;;;;;;4775939;30;20211;-87
2021/01/06 02:20:35;;;;;;;3.00;2.80;;;;;;;;;;4776304;30;20197;-88
2021/01/06 02:23:03;;;;;;;3.05;2.75;;;;;;;;;;4775261;30;20585;-87
2021/01/06 02:25:32;;;;;;;3.28;2.97;;;;;;;;;;4775640;30;20196;-87
2021/01/06 02:28:00;;;;;;;3.15;2.90;;;;;;;;;;4775533;30;20256;-85
2021/01/06 02:30:28;;;;;;;3.78;3.22;;;;;;;;;;4775887;30;20208;-88
2021/01/06 02:32:55;;;;;;;3.08;2.35;;;;;;;;;;4775665;30;20235;-87
2021/01/06 02:35:23;;;;;;;3.40;3.10;;;;;;;;;;4775666;30;20231;-86
2021/01/06 02:37:51;;;;;;;3.42;3.13;;;;;;;;;;4775742;30;20192;-87
2021/01/06 02:40:19;;;;;;;3.13;2.83;;;;;;;;;;4775441;30;20534;-86
2021/01/06 02:42:47;;;;;;;3.95;2.83;;;;;;;;;;4775475;30;20212;-87
2021/01/06 02:45:16;;;;;;;2.75;2.55;;;;;;;;;;4775511;30;20192;-88
2021/01/06 02:47:47;;;;;;;4.45;3.88;;;;;;;;;;4775224;30;20211;-87
2021/01/06 02:50:14;;;;;;;3.15;2.83;;;;;;;;;;4775521;30;20200;-87
2021/01/06 02:52:46;;;;;;;3.33;3.03;;;;;;;;;;4775480;30;20196;-86
2021/01/06 02:55:14;;;;;;;3.25;2.95;;;;;;;;;;4775890;30;20226;-87
2021/01/06 02:57:42;;;;;;;4.07;3.33;;;;;;;;;;4775268;30;20192;-87
2021/01/06 03:00:14;;;;;;;2.90;2.70;;;;;;;;;;4775178;30;20463;-87
2021/01/06 03:02:41;;;;;;;3.47;3.17;;;;;;;;;;4774926;30;20235;-87
2021/01/06 03:05:17;;;;;;;4.18;3.28;;;;;;;;;;4775021;30;20196;-88
2021/01/06 03:07:44;;;;;;;4.45;3.88;;;;;;;;;;4774975;30;20538;-87
2021/01/06 03:10:16;;;;;;;4.20;3.45;;;;;;;;;;4775739;30;20204;-87
2021/01/06 03:12:44;;;;;;;3.75;3.45;;;;;;;;;;4775586;30;20200;-88
2021/01/06 03:15:14;;;;;;;4.32;3.78;;;;;;;;;;4774453;30;20583;-86
2021/01/06 03:17:41;;;;;;;4.45;4.05;;;;;;;;;;4730467;30;20218;-87
2021/01/06 03:20:12;;;;;;;4.47;3.55;;;;;;;;;;4775089;30;20267;-86
2021/01/06 03:22:40;;;;;;;4.95;3.85;;;;;;;;;;4775075;30;20199;-88
2021/01/06 03:25:11;;;;;;;5.18;4.35;;;;;;;;;;4774734;30;20580;-87
2021/01/06 03:27:40;;;;;;;5.18;4.15;;;;;;;;;;4775056;30;20188;-87
2021/01/06 03:30:12;;;;;;;5.00;4.50;;;;;;;;;;4775100;30;20233;-87
2021/01/06 03:32:46;;;;;;;5.47;4.45;;;;;;;;;;4775027;30;20228;-87
2021/01/06 03:35:20;;;;;;;4.40;3.90;;;;;;;;;;4775227;30;20235;-87
2021/01/06 03:37:53;;;;;;;7.75;4.68;;;;;;;;;;4774985;30;20200;-88
2021/01/06 03:40:26;;;;;;;5.80;5.28;;;;;;;;;;4774963;30;20192;-87
2021/01/06 03:42:54;;;;;;;5.90;4.38;;;;;;;;;;4774953;30;20200;-87
2021/01/06 03:45:27;;;;;;;6.63;4.90;;;;;;;;;;4774937;30;20472;-87
2021/01/06 03:47:59;;;;;;;5.63;4.78;;;;;;;;;;4774656;30;20228;-87
2021/01/06 03:50:32;;;;;;;6.00;4.72;;;;;;;;;;4774711;30;20200;-87
2021/01/06 03:53:09;;;;;;;6.10;5.50;;;;;;;;;;4774550;30;20192;-87
2021/01/06 03:55:48;;;;;;;5.75;4.63;;;;;;;;;;4774736;30;20234;-87
2021/01/06 03:58:30;;;;;;;6.35;4.68;;;;;;;;;;4774752;30;20199;-87
2021/01/06 04:01:09;;;;;;;5.20;4.78;;;;;;;;;;4774724;30;20212;-87
2021/01/06 04:03:54;;;;;;;5.40;4.90;;;;;;;;;;4774220;30;20243;-87
2021/01/06 04:06:23;;;;;;;6.20;4.88;;;;;;;;;;4774493;30;20193;-87
2021/01/06 04:08:54;;;;;;;6.45;5.03;;;;;;;;;;4774863;30;20523;-87
2021/01/06 04:11:26;;;;;;;6.97;5.53;;;;;;;;;;4774417;30;20207;-87
2021/01/06 04:13:53;;;;;;;6.75;4.93;;;;;;;;;;4774564;30;20196;-87
2021/01/06 04:16:21;;;;;;;8.65;5.57;;;;;;;;;;4774674;30;20204;-87
2021/01/06 04:18:48;;;;;;;6.55;5.95;;;;;;;;;;4774376;30;20208;-86
2021/01/06 04:21:15;;;;;;;7.13;5.82;;;;;;;;;;4774785;30;20196;-87
2021/01/06 04:23:42;;;;;;;6.50;5.80;;;;;;;;;;4774746;30;20459;-87
2021/01/06 04:26:12;;;;;;;6.53;5.68;;;;;;;;;;4777508;30;20447;-87
2021/01/06 04:28:39;;;;;;;6.28;5.35;;;;;;;;;;4777829;30;20192;-87
2021/01/06 04:31:10;;;;;;;6.13;5.13;;;;;;;;;;4777722;30;20212;-87
2021/01/06 04:33:41;;;;;;;6.75;5.90;;;;;;;;;;4777679;30;20239;-88
2021/01/06 04:36:12;;;;;;;5.38;4.88;;;;;;;;;;4777853;30;20223;-87
2021/01/06 04:38:44;;;;;;;8.40;6.30;;;;;;;;;;4777724;30;20196;-87
2021/01/06 04:41:26;;;;;;;5.85;4.75;;;;;;;;;;4777453;30;20218;-88
2021/01/06 04:44:09;;;;;;;6.35;5.75;;;;;;;;;;4777601;30;20196;-88
2021/01/06 04:46:58;;;;;;;7.05;5.50;;;;;;;;;;4777566;30;20207;-88
2021/01/06 04:49:33;;;;;;;6.72;5.53;;;;;;;;;;4777453;30;20207;-87
2021/01/06 04:52:06;;;;;;;7.72;6.35;;;;;;;;;;4777468;30;20192;-88
2021/01/06 04:55:00;;;;;;;6.25;5.40;;;;;;;;;;4777722;30;20224;-87
2021/01/06 04:57:39;;;;;;;5.60;4.97;;;;;;;;;;4723315;30;20499;-87
2021/01/06 05:00:27;;;;;;;6.00;5.30;;;;;;;;;;4723055;30;20210;-88
2021/01/06 05:03:30;;;;;;;7.07;5.63;;;;;;;;;;4722811;30;20559;-88
2021/01/06 05:06:49;;;;;;;5.50;4.75;;;;;;;;;;4723433;30;20198;-89
2021/01/06 05:09:21;;;;;;;6.03;5.20;;;;;;;;;;4722305;30;20239;-87
2021/01/06 05:11:58;;;;;;;7.07;5.88;;;;;;;;;;4722897;30;20263;-89
2021/01/06 05:14:31;;;;;;;4.95;4.47;;;;;;;;;;4722810;30;20314;-89
2021/01/06 05:16:58;;;;;;;8.27;5.57;;;;;;;;;;4723206;30;20201;-88
2021/01/06 05:19:27;;;;;;;6.25;5.57;;;;;;;;;;4722798;30;20205;-88
2021/01/06 05:21:55;;;;;;;4.72;4.32;;;;;;;;;;4722875;30;20210;-87
2021/01/06 05:24:27;;;;;;;5.60;4.88;;;;;;;;;;4723014;30;20210;-87
2021/01/06 05:27:00;;;;;;;5.63;5.13;;;;;;;;;;4722376;30;20206;-87
2021/01/06 05:29:29;;;;;;;5.53;4.68;;;;;;;;;;4722605;30;20198;-87
2021/01/06 05:31:56;;;;;;;8.00;5.03;;;;;;;;;;4722390;30;20198;-88
2021/01/06 05:34:24;;;;;;;5.25;4.85;;;;;;;;;;4745771;30;20594;-87
2021/01/06 05:36:51;;;;;;;5.95;4.55;;;;;;;;;;4775582;30;20208;-87
2021/01/06 05:39:25;;;;;;;6.63;5.13;;;;;;;;;;4776690;30;20474;-87
2021/01/06 05:41:54;;;;;;;8.02;5.63;;;;;;;;;;4776624;30;20198;-87
2021/01/06 05:44:21;;;;;;;5.55;5.03;;;;;;;;;;4776535;30;20454;-87
2021/01/06 05:46:49;;;;;;;6.75;6.07;;;;;;;;;;4777087;30;20215;-91
2021/01/06 05:49:25;;;;;;;5.82;5.30;;;;;;;;;;4776388;30;20582;-89
2021/01/06 05:51:57;;;;;;;10.27;6.00;;;;;;;;;;4777124;30;20204;-89
2021/01/06 05:54:37;;;;;;;7.15;5.88;;;;;;;;;;4776772;30;20260;-90
2021/01/06 05:57:14;;;;;;;6.32;5.72;;;;;;;;;;4776603;30;20195;-90
2021/01/06 06:00:17;;;;;;;5.68;5.13;;;;;;;;;;4777064;30;20294;-90
2021/01/06 06:02:50;;;;;;;6.88;5.20;;;;;;;;;;4776247;30;20247;-92
2021/01/06 06:05:40;;;;;;;6.25;5.65;;;;;;;;;;4776941;30;20196;-90
2021/01/06 06:08:37;;;;;;;7.25;5.28;;;;;;;;;;4776357;30;20275;-91
2021/01/06 06:11:37;;;;;;;6.30;5.50;;;;;;;;;;4777254;30;20261;-90
2021/01/06 06:14:36;;;;;;;6.22;5.07;;;;;;;;;;4776285;30;20192;-91
2021/01/06 06:17:11;;;;;;;6.53;5.25;;;;;;;;;;4775933;30;20672;-91
2021/01/06 06:20:08;;;;;;;4.97;4.25;;;;;;;;;;4775960;30;20206;-90
2021/01/06 06:22:39;;;;;;;5.95;5.00;;;;;;;;;;4775876;30;20196;-90
2021/01/06 06:25:13;;;;;;;5.45;4.85;;;;;;;;;;4776096;30;20453;-90
2021/01/06 06:27:58;;;;;;;4.93;4.40;;;;;;;;;;4775921;30;20189;-91
2021/01/06 06:30:32;;;;;;;6.07;5.22;;;;;;;;;;4776959;30;20587;-91
2021/01/06 06:32:59;;;;;;;5.70;4.97;;;;;;;;;;4775907;30;20224;-90
2021/01/06 06:35:33;;;;;;;6.10;5.50;;;;;;;;;;4776515;30;20239;-92
2021/01/06 06:38:03;;;;;;;4.78;4.38;;;;;;;;;;4776258;30;20207;-91
2021/01/06 06:40:55;;;;;;;5.93;5.20;;;;;;;;;;4775918;30;20196;-91
2021/01/06 06:43:38;;;;;;;6.15;5.55;;;;;;;;;;4776261;30;20230;-92
2021/01/06 06:46:26;;;;;;;5.35;4.88;;;;;;;;;;4775537;30;20291;-90
2021/01/06 06:49:23;;;;;;;5.28;4.78;;;;;;;;;;4776503;30;20497;-91
2021/01/06 06:51:56;;;;;;;5.22;4.72;;;;;;;;;;4771613;30;20559;-91
2021/01/06 06:54:34;;;;;;;4.78;4.35;;;;;;;;;;4731240;30;20215;-92
2021/01/06 06:57:05;;;;;;;5.50;5.00;;;;;;;;;;4775713;30;20228;-92
2021/01/06 06:59:43;;;;;;;5.55;5.05;;;;;;;;;;4776276;30;20491;-93
2021/01/06 07:02:11;;;;;;;5.13;4.63;;;;;;;;;;4776112;30;20231;-93
2021/01/06 07:04:52;;;;;;;5.45;4.63;;;;;;;;;;4776473;30;20204;-92
2021/01/06 07:07:38;;;;;;;6.25;4.75;;;;;;;;;;4775690;30;20207;-93
2021/01/06 07:10:07;;;;;;;5.70;5.20;;;;;;;;;;4775483;30;20196;-93
2021/01/06 07:12:40;;;;;;;5.70;5.10;;;;;;;;;;4775937;30;20196;-91
2021/01/06 07:15:21;;;;;;;5.90;5.40;;;;;;;;;;4775895;30;20214;-91
2021/01/06 07:17:49;;;;;;;5.35;4.85;;;;;;;;;;4775400;30;20202;-92
2021/01/06 07:20:39;;;;;;;5.38;4.88;;;;;;;;;;4775380;30;20227;-91
2021/01/06 07:23:16;;;;;;;5.22;4.70;;;;;;;;;;4775352;30;20196;-91
2021/01/06 07:25:46;;;;;;;5.65;5.13;;;;;;;;;;4775743;30;20208;-92
2021/01/06 07:28:15;;;;;;;5.43;4.93;;;;;;;;;;4775030;30;20184;-91
2021/01/06 07:30:47;;;;;;;6.18;5.47;;;;;;;;;;4775664;30;20242;-92
2021/01/06 07:33:29;;;;;;;6.28;5.68;;;;;;;;;;4775286;30;20592;-91
2021/01/06 07:36:07;;;;;;;7.70;6.90;;;;;;;;;;4775855;30;20231;-91
2021/01/06 07:38:35;;;;;;;7.15;6.45;;;;;;;;;;4775267;30;20249;-90
2021/01/06 07:41:02;;;;;;;6.22;5.63;;;;;;;;;;4775883;30;20211;-91
2021/01/06 07:43:32;;;;;;;6.25;5.65;;;;;;;;;;4775226;30;20192;-91
2021/01/06 07:46:23;;;;;;;7.05;6.32;;;;;;;;;;4775459;30;20192;-92
2021/01/06 07:49:12;;;;;;;6.25;5.50;;;;;;;;;;4771995;30;20219;-91
2021/01/06 07:51:54;;;;;;;6.10;5.43;;;;;;;;;;4775726;30;20211;-91
2021/01/06 07:54:30;;;;;;;5.10;4.60;;;;;;;;;;4776060;30;20208;-91
2021/01/06 07:57:11;;;;;;;5.68;5.07;;;;;;;;;;4775254;30;20354;-91
2021/01/06 07:59:50;;;;;;;5.53;5.03;;;;;;;;;;4777823;30;20214;-92
2021/01/06 08:02:25;;;;;;;5.22;4.72;;;;;;;;;;4778041;30;20506;-92
2021/01/06 08:05:26;;;;;;;5.22;4.45;;;;;;;;;;4779146;30;20266;-92
2021/01/06 08:08:05;;;;;;;5.47;4.93;;;;;;;;;;4778498;30;20184;-90
2021/01/06 08:10:32;;;;;;;6.90;5.82;;;;;;;;;;4778806;30;20212;-90
2021/01/06 08:13:27;;;;;;;5.88;5.28;;;;;;;;;;4778777;30;20253;-90
2021/01/06 08:16:10;;;;;;;6.63;5.95;;;;;;;;;;4778054;30;20212;-91
2021/01/06 08:19:04;;;;;;;5.88;5.28;;;;;;;;;;4778264;30;20253;-91
2021/01/06 08:21:34;;;;;;;8.38;5.65;;;;;;;;;;4778174;30;20202;-91
2021/01/06 08:24:12;;;;;;;5.03;4.53;;;;;;;;;;4778593;30;20208;-90
2021/01/06 08:26:49;;;;;;;4.80;4.40;;;;;;;;;;4778509;30;20204;-89
2021/01/06 08:29:20;;;;;;;5.47;4.97;;;;;;;;;;4778358;30;20566;-90
2021/01/06 08:31:50;;;;;;;4.68;4.28;;;;;;;;;;4778311;30;20230;-91
2021/01/06 08:34:27;;;;;;;4.70;4.30;;;;;;;;;;4778040;30;20281;-89
2021/01/06 08:37:02;;;;;;;5.10;4.70;;;;;;;;;;4778134;30;20219;-91
2021/01/06 08:39:33;;;;;;;4.72;4.32;;;;;;;;;;4778399;30;20260;-91
2021/01/06 08:42:10;;;;;;;4.28;3.97;;;;;;;;;;4777609;30;20574;-90
2021/01/06 08:44:43;;;;;;;4.05;3.50;;;;;;;;;;4778109;30;20198;-91
2021/01/06 08:47:13;;;;;;;4.18;3.78;;;;;;;;;;4777815;30;20200;-92
2021/01/06 08:49:44;;;;;;;4.57;4.03;;;;;;;;;;4778018;30;20534;-91
2021/01/06 08:52:20;;;;;;;4.35;3.60;;;;;;;;;;4778080;30;20216;-91
2021/01/06 08:54:59;;;;;;;5.45;4.28;;;;;;;;;;4778056;30;20217;-90
2021/01/06 08:57:32;;;;;;;4.13;3.72;;;;;;;;;;4777972;30;20247;-93
2021/01/06 09:00:23;;;;;;;4.40;4.00;;;;;;;;;;4777787;30;20500;-91
2021/01/06 09:02:54;;;;;;;3.55;3.25;;;;;;;;;;4777187;30;20247;-92
2021/01/06 09:05:47;;;;;;;4.55;4.15;;;;;;;;;;4777570;30;20208;-92
2021/01/06 09:08:18;;;;;;;3.85;3.55;;;;;;;;;;4777611;30;20230;-92
2021/01/06 09:11:05;;;;;;;3.80;3.50;;;;;;;;;;4777693;30;20443;-92
2021/01/06 09:13:38;;;;;;;3.40;3.10;;;;;;;;;;4775368;30;20219;-91
2021/01/06 09:16:10;;;;;;;4.85;3.28;;;;;;;;;;4777405;30;20271;-91
2021/01/06 09:18:41;;;;;;;3.50;3.17;;;;;;;;;;4777706;30;20200;-92
2021/01/06 09:21:20;;;;;;;3.22;2.85;;;;;;;;;;4777197;30;20219;-92
2021/01/06 09:23:50;;;;;;;3.10;2.90;;;;;;;;;;4777548;30;20573;-92
2021/01/06 09:26:21;;;;;;;3.78;3.47;;;;;;;;;;4777608;30;20566;-92
2021/01/06 09:28:58;;;;;;;3.90;3.15;;;;;;;;;;4777683;30;20214;-92
2021/01/06 09:31:27;;;;;;;3.47;3.17;;;;;;;;;;4777092;30;20502;-91
2021/01/06 09:33:55;;;;;;;3.50;3.20;;;;;;;;;;4776976;30;20224;-91
2021/01/06 09:36:23;;;;;;;3.63;3.28;;;;;;;;;;4777172;30;20331;-91
2021/01/06 09:38:51;;;;;;;5.32;3.65;;;;;;;;;;4776833;30;20266;-91
2021/01/06 09:41:23;;;;;;;3.60;3.30;;;;;;;;;;4777121;30;20216;-90
2021/01/06 09:43:57;;;;;;;3.47;3.10;;;;;;;;;;4776869;30;20275;-91
2021/01/06 09:46:38;;;;;;;4.80;2.95;;;;;;;;;;4777581;30;20206;-90
2021/01/06 09:49:07;;;;;;;3.40;2.80;;;;;;;;;;4776770;30;20218;-92
2021/01/06 09:51:39;;;;;;;3.88;3.58;;;;;;;;;;4777619;30;20420;-91
2021/01/06 09:54:07;;;;;;;3.45;3.15;;;;;;;;;;4776918;30;20220;-90
2021/01/06 09:56:36;;;;;;;4.00;3.60;;;;;;;;;;4776594;30;20236;-91
2021/01/06 09:59:05;;;;;;;3.20;2.90;;;;;;;;;;4776515;30;20275;-90
2021/01/06 10:01:37;;;;;;;3.20;3.00;;;;;;;;;;4776492;30;20189;-90
2021/01/06 10:04:13;;;;;;;3.45;3.15;;;;;;;;;;4777137;30;20231;-89
2021/01/06 10:06:57;;;;;;;3.60;3.30;;;;;;;;;;4776413;30;20196;-90
2021/01/06 10:09:30;;;;;;;3.72;3.42;;;;;;;;;;4776340;30;20196;-90
2021/01/06 10:12:41;;;;;;;3.95;3.65;;;;;;;;;;4776267;30;20200;-90
2021/01/06 10:15:43;;;;;;;4.10;3.40;;;;;;;;;;4776626;30;20246;-90
2021/01/06 10:18:32;;;;;;;3.60;3.30;;;;;;;;;;4776138;30;20551;-89
2021/01/06 10:21:02;;;;;;;3.47;3.17;;;;;;;;;;4775538;30;20231;-92
2021/01/06 10:23:39;;;;;;;3.83;3.53;;;;;;;;;;4776298;30;20256;-92
2021/01/06 10:26:27;;;;;;;3.15;2.83;;;;;;;;;;4776338;30;20230;-91
2021/01/06 10:28:54;;;;;;;3.70;3.38;;;;;;;;;;4776680;30;20543;-91
2021/01/06 10:31:24;;;;;;;3.97;3.63;;;;;;;;;;4775953;30;20651;-91
2021/01/06 10:34:06;;;;;;;4.05;3.50;;;;;;;;;;4776075;30;20231;-91
2021/01/06 10:37:20;;;;;;;3.58;3.15;;;;;;;;;;4776777;30;20484;-90
2021/01/06 10:39:52;;;;;;;3.33;3.03;;;;;;;;;;4722054;30;20213;-90
2021/01/06 10:42:36;;;;;;;3.25;2.95;;;;;;;;;;4721958;30;20233;-90
2021/01/06 10:45:10;;;;;;;3.83;3.40;;;;;;;;;;4722267;30;20298;-90
2021/01/06 10:47:47;;;;;;;4.18;3.78;;;;;;;;;;4721679;30;20201;-90
2021/01/06 10:50:43;;;;;;;3.85;3.55;;;;;;;;;;4722077;30;20213;-91
2021/01/06 10:53:18;;;;;;;3.25;2.95;;;;;;;;;;4722162;30;20213;-92
2021/01/06 10:55:50;;;;;;;3.42;3.15;;;;;;;;;;4722025;30;20213;-90
2021/01/06 10:58:23;;;;;;;3.97;3.67;;;;;;;;;;4721939;30;20238;-91
2021/01/06 11:01:04;;;;;;;3.42;3.13;;;;;;;;;;4721515;30;20213;-91
2021/01/06 11:03:46;;;;;;;4.05;3.65;;;;;;;;;;4721207;30;20248;-90
2021/01/06 11:06:26;;;;;;;4.22;3.83;;;;;;;;;;4721418;30;20213;-90
2021/01/06 11:09:24;;;;;;;4.75;3.78;;;;;;;;;;4721476;30;20472;-91
2021/01/06 11:12:46;;;;;;;4.15;3.33;;;;;;;;;;4722108;30;20567;-91
2021/01/06 11:15:43;;;;;;;3.78;3.47;;;;;;;;;;4740702;30;20216;-90
2021/01/06 11:18:38;;;;;;;3.42;3.00;;;;;;;;;;4775069;30;20279;-91
2021/01/06 11:21:16;;;;;;;4.03;3.67;;;;;;;;;;4775226;30;20192;-92
2021/01/06 11:23:55;;;;;;;4.00;3.65;;;;;;;;;;4775512;30;20218;-91
2021/01/06 11:26:53;;;;;;;3.80;3.50;;;;;;;;;;4775901;30;20260;-92
2021/01/06 11:29:49;;;;;;;4.55;4.15;;;;;;;;;;4775237;30;20192;-90
2021/01/06 11:32:40;;;;;;;4.22;3.83;;;;;;;;;;4757123;30;20228;-90
2021/01/06 11:35:25;;;;;;;3.70;3.40;;;;;;;;;;4760458;30;20198;-90
2021/01/06 11:37:54;;;;;;;3.78;3.47;;;;;;;;;;4761433;30;20232;-91
2021/01/06 11:40:54;;;;;;;4.50;4.10;;;;;;;;;;4761161;30;20579;-90
2021/01/06 11:43:49;;;;;;;4.05;3.75;;;;;;;;;;4750835;30;20223;-91
2021/01/06 11:47:19;;;;;;;4.28;3.90;;;;;;;;;;4724241;30;20214;-91
2021/01/06 11:50:00;;;;;;;4.10;3.75;;;;;;;;;;4713923;30;20466;-91
2021/01/06 11:52:45;;;;;;;4.15;3.75;;;;;;;;;;4724756;30;20247;-90
2021/01/06 11:55:41;;;;;;;3.78;3.47;;;;;;;;;;4724140;30;20238;-92
2021/01/06 11:58:32;;;;;;;3.22;2.92;;;;;;;;;;4720577;30;20653;-87
2021/01/06 12:01:23;;;;;;;3.53;3.22;;;;;;;;;;4724149;30;20202;-89
2021/01/06 12:04:22;;;;;;;3.70;3.40;;;;;;;;;;4740083;30;20236;-90
2021/01/06 12:07:14;;;;;;;4.38;3.97;;;;;;;;;;4742065;30;20202;-92
2021/01/06 12:09:53;;;;;;;4.35;3.97;;;;;;;;;;4739672;30;20201;-90
2021/01/06 12:12:51;;;;;;;4.03;3.63;;;;;;;;;;4741547;30;20284;-89
2021/01/06 12:15:49;;;;;;;3.85;3.55;;;;;;;;;;4755880;30;20201;-90
2021/01/06 12:18:39;;;;;;;4.05;3.65;;;;;;;;;;4752854;30;20220;-90
2021/01/06 12:21:40;;;;;;;3.72;3.22;;;;;;;;;;4741186;30;20636;-87
2021/01/06 12:24:23;;;;;;;4.78;4.38;;;;;;;;;;4755881;30;20217;-88
2021/01/06 12:26:55;;;;;;;5.03;4.53;;;;;;;;;;4760425;30;20530;-88
2021/01/06 12:29:25;;;;;;;5.30;4.10;;;;;;;;;;4760201;30;20197;-88
2021/01/06 12:31:58;;;;;;;3.92;3.63;;;;;;;;;;4760064;30;20205;-88
2021/01/06 12:34:35;;;;;;;4.90;4.50;;;;;;;;;;4760107;30;20232;-92
2021/01/06 12:37:24;;;;;;;4.60;4.18;;;;;;;;;;4760256;30;20379;-92
2021/01/06 12:40:20;;;;;;;5.18;4.20;;;;;;;;;;4760789;30;20541;-93
2021/01/06 12:42:55;;;;;;;5.20;4.70;;;;;;;;;;4760764;30;20227;-90
2021/01/06 12:45:26;;;;;;;5.40;4.90;;;;;;;;;;4759510;30;20200;-90
2021/01/06 12:48:01;;;;;;;5.93;5.18;;;;;;;;;;4760101;30;20682;-90
2021/01/06 12:50:32;;;;;;;5.60;5.05;;;;;;;;;;4785984;30;20200;-91
2021/01/06 12:53:08;;;;;;;6.20;5.60;;;;;;;;;;4777275;30;20208;-90
2021/01/06 12:55:51;;;;;;;6.28;5.68;;;;;;;;;;4777546;30;20276;-91
2021/01/06 12:58:25;;;;;;;5.50;5.00;;;;;;;;;;4777304;30;20212;-90
2021/01/06 13:01:04;;;;;;;5.63;5.13;;;;;;;;;;4774844;30;20295;-93
2021/01/06 13:03:51;;;;;;;5.22;4.47;;;;;;;;;;4776937;30;20625;-94
2021/01/06 13:06:38;;;;;;;5.18;4.68;;;;;;;;;;4777141;30;20212;-90
2021/01/06 13:09:16;;;;;;;4.57;4.18;;;;;;;;;;4777451;30;20196;-91
2021/01/06 13:11:55;;;;;;;5.13;4.70;;;;;;;;;;4777727;30;20557;-92
2021/01/06 13:14:36;;;;;;;5.25;4.55;;;;;;;;;;4777144;30;20235;-91
2021/01/06 13:17:21;;;;;;;5.07;4.68;;;;;;;;;;4777102;30;20338;-89
2021/01/06 13:20:41;;;;;;;5.05;4.55;;;;;;;;;;4777592;30;20216;-91
2021/01/06 13:23:29;;;;;;;4.72;4.25;;;;;;;;;;4776982;30;20188;-90
2021/01/06 13:26:24;;;;;;;5.38;4.88;;;;;;;;;;4763168;30;20264;-90
2021/01/06 13:28:59;;;;;;;5.60;5.00;;;;;;;;;;4776836;30;20203;-93
2021/01/06 13:31:37;;;;;;;5.32;4.32;;;;;;;;;;4776632;30;20211;-91
2021/01/06 13:34:27;;;;;;;5.15;4.72;;;;;;;;;;4776994;30;20246;-91
2021/01/06 13:36:58;;;;;;;5.30;4.80;;;;;;;;;;4776896;30;20196;-93
2021/01/06 13:39:38;;;;;;;6.70;5.95;;;;;;;;;;4776595;30;20279;-95
2021/01/06 13:42:27;;;;;;;5.95;5.35;;;;;;;;;;4776620;30;20196;-92
2021/01/06 13:45:20;;;;;;;6.35;5.75;;;;;;;;;;4775743;30;20192;-90
2021/01/06 13:47:49;;;;;;;5.70;5.10;;;;;;;;;;4775053;30;20261;-88
2021/01/06 13:50:36;;;;;;;5.03;4.53;;;;;;;;;;4776718;30;20529;-89
2021/01/06 13:53:30;;;;;;;4.97;4.57;;;;;;;;;;4776816;30;20474;-90
2021/01/06 13:56:03;;;;;;;5.70;5.10;;;;;;;;;;4775734;30;20465;-89
2021/01/06 13:58:37;;;;;;;5.28;4.85;;;;;;;;;;4776526;30;20476;-89
2021/01/06 14:01:10;;;;;;;4.80;4.40;;;;;;;;;;4776415;30;20191;-89
2021/01/06 14:03:42;;;;;;;6.40;4.97;;;;;;;;;;4775980;30;20243;-90
2021/01/06 14:06:17;;;;;;;5.25;4.68;;;;;;;;;;4776191;30;20208;-92
2021/01/06 14:09:21;;;;;;;5.13;4.50;;;;;;;;;;4776236;30;20275;-92
2021/01/06 14:12:51;;;;;;;4.88;4.38;;;;;;;;;;4776056;30;20215;-94
2021/01/06 14:15:27;;;;;;;5.38;4.45;;;;;;;;;;4775993;30;20573;-95
2021/01/06 14:18:19;;;;;;;4.75;4.32;;;;;;;;;;4776143;30;20219;-93
2021/01/06 14:21:07;;;;;;;5.85;5.35;;;;;;;;;;4776211;30;20204;-93
2021/01/06 14:23:42;;;;;;;4.88;4.45;;;;;;;;;;4776540;30;20527;-94
2021/01/06 14:26:39;;;;;;;5.13;4.63;;;;;;;;;;4775995;30;20207;-93
2021/01/06 14:29:46;;;;;;;6.35;5.00;;;;;;;;;;4776227;30;20240;-94
2021/01/06 14:32:31;;;;;;;6.28;5.68;;;;;;;;;;4757964;30;20273;-94
2021/01/06 14:35:20;;;;;;;5.18;4.68;;;;;;;;;;4776257;30;20589;-94
2021/01/06 14:38:07;;;;;;;4.68;4.28;;;;;;;;;;4776451;30;20236;-92
2021/01/06 14:40:38;;;;;;;5.13;4.20;;;;;;;;;;4776083;30;20275;-92
2021/01/06 14:43:12;;;;;;;4.75;4.28;;;;;;;;;;4777016;30;20258;-94
2021/01/06 14:45:55;;;;;;;4.35;4.05;;;;;;;;;;4776879;30;20219;-92
2021/01/06 14:48:28;;;;;;;4.95;4.45;;;;;;;;;;4776679;30;20195;-93
2021/01/06 14:51:16;;;;;;;5.65;4.63;;;;;;;;;;4776099;30;20214;-94
2021/01/06 14:53:49;;;;;;;6.68;4.88;;;;;;;;;;4776218;30;20215;-95
2021/01/06 14:56:24;;;;;;;4.70;4.22;;;;;;;;;;4776261;30;20272;-94
2021/01/06 14:59:25;;;;;;;5.72;5.20;;;;;;;;;;4775981;30;20220;-94
2021/01/06 15:02:23;;;;;;;4.25;3.88;;;;;;;;;;4775540;29;20272;-94
2021/01/06 15:05:04;;;;;;;4.82;4.32;;;;;;;;;;4776386;30;20215;-93
2021/01/06 15:07:39;;;;;;;4.30;3.90;;;;;;;;;;4775838;30;20208;-94
2021/01/06 15:10:21;;;;;;;4.97;4.22;;;;;;;;;;4776138;30;20207;-93
2021/01/06 15:12:55;;;;;;;5.00;4.53;;;;;;;;;;4776214;30;20204;-93
2021/01/06 15:15:29;;;;;;;5.35;4.47;;;;;;;;;;4775644;30;20535;-93
2021/01/06 15:18:01;;;;;;;4.68;4.25;;;;;;;;;;4776067;30;20207;-94
2021/01/06 15:20:30;;;;;;;4.93;4.43;;;;;;;;;;4775117;30;20184;-93
2021/01/06 15:23:03;;;;;;;6.28;4.68;;;;;;;;;;4775837;30;20529;-94
2021/01/06 15:25:41;;;;;;;5.53;5.03;;;;;;;;;;4776105;30;20219;-93
2021/01/06 15:28:18;;;;;;;5.25;4.75;;;;;;;;;;4776177;30;20208;-93
2021/01/06 15:30:55;;;;;;;6.10;5.50;;;;;;;;;;4775307;30;20283;-93
2021/01/06 15:33:33;;;;;;;7.28;4.70;;;;;;;;;;4775216;30;20231;-93
2021/01/06 15:36:04;;;;;;;6.28;5.38;;;;;;;;;;4775899;30;20281;-94
2021/01/06 15:38:32;;;;;;;5.60;5.03;;;;;;;;;;4776103;30;20232;-93
2021/01/06 15:41:05;;;;;;;6.47;5.78;;;;;;;;;;4775347;30;20560;-94
2021/01/06 15:43:35;;;;;;;5.47;4.93;;;;;;;;;;4775608;30;20213;-94